Latest Weather Observations for Clare

IDS60801

Issued at 12:02 pm CST Thursday 7 May 2015 (issued every 30 minutes, with the page automatically refreshed every 10 minutes)

About weather observations | Map of weather stations | Latest weather observations for SA | Other Formats
Station Details ID: 021131 Name: CLARE HIGH SCHOOL Lat: -33.82 Lon: 138.59 Height: 395.0 m
Data from the previous 72 hours. | See also: Recent months at Clare
Date/Time
CST
Temp
°C
App
Temp
°C
Dew
Point
Rel
Hum
%
Delta-T
°C
Wind Press
QNH
hPa
Press
MSL
hPa
Rain
since 9 am
mm
Dir
 
Spd
km/h
Gust
km/h
Spd
kts
Gust
kts
07/12:00pm 12.0 8.0 4.7 61 3.4 SW 15 28 8 15 1027.0 1027.1 0.0
07/11:30am 11.6 7.7 5.3 65 2.9 SW 15 30 8 16 1027.1 - 0.0
07/11:00am 11.5 8.0 7.2 75 2.1 SW 15 22 8 12 1027.1 - 0.0
07/10:30am 11.4 8.4 7.7 78 1.8 SW 13 24 7 13 1027.1 - 0.0
07/10:00am 10.5 7.5 7.7 83 1.4 SW 13 20 7 11 1027.1 - 0.0
07/09:30am 10.1 8.1 8.5 90 0.8 SSW 9 13 5 7 1026.8 - 0.0
07/09:00am 9.5 7.8 8.4 93 0.5 SW 7 13 4 7 1026.5 1026.5 1.8
07/08:30am 9.1 8.0 8.3 95 0.4 WSW 4 7 2 4 1026.2 - 1.8
07/08:00am 8.5 7.3 7.9 96 0.3 W 4 9 2 5 1025.7 - 1.8
07/07:30am 8.3 7.8 7.9 97 0.2 CALM 0 6 0 3 1025.3 - 1.8
07/07:00am 8.4 6.8 8.1 98 0.1 S 6 9 3 5 1024.9 - 1.8
07/06:30am 8.4 6.3 8.1 98 0.1 WSW 9 17 5 9 1024.7 - 1.8
07/06:00am 8.4 6.9 8.3 99 0.0 WSW 6 13 3 7 1024.4 1024.4 1.6
07/05:30am 8.5 6.8 8.4 99 0.0 SW 7 17 4 9 1024.1 - 1.6
07/05:00am 8.6 5.4 8.5 99 0.0 WSW 15 35 8 19 1024.0 - 1.6
07/04:30am 8.6 6.9 8.5 99 0.0 SW 7 13 4 7 1023.8 - 1.6
07/04:00am 8.8 6.0 8.5 98 0.1 WSW 13 20 7 11 1023.7 - 1.6
07/03:30am 9.1 6.7 8.5 96 0.3 W 11 19 6 10 1023.8 - 1.2
07/03:00am 9.3 7.7 8.7 96 0.3 SW 7 13 4 7 1023.6 1023.6 1.2
07/02:30am 9.4 7.4 8.8 96 0.3 W 9 17 5 9 1023.5 - 1.2
07/02:00am 9.3 7.8 8.5 95 0.4 W 6 11 3 6 1023.5 - 1.0
07/01:30am 9.2 7.2 8.6 96 0.3 W 9 13 5 7 1023.6 - 1.0
07/01:00am 9.3 7.4 9.2 99 0.1 WNW 9 13 5 7 1023.7 - 1.0
07/12:30am 8.7 8.4 8.6 99 0.0 CALM 0 0 0 0 1023.7 - 1.0
07/12:00am 8.7 7.6 8.6 99 0.0 W 4 9 2 5 1023.7 1023.7 1.0
 
Date/Time
CST
Temp
°C
App
Temp
°C
Dew
Point
Rel
Hum
%
Delta-T
°C
Wind Press
QNH
hPa
Press
MSL
hPa
Rain
since 9 am
mm
Dir
 
Spd
km/h
Gust
km/h
Spd
kts
Gust
kts
06/11:30pm 9.0 8.7 8.7 98 0.1 CALM 0 4 0 2 1023.6 - 1.0
06/11:00pm 9.5 8.6 9.2 98 0.2 W 4 11 2 6 1023.7 - 1.0
06/10:30pm 10.3 9.2 10.1 99 0.1 WSW 6 13 3 7 1023.7 - 1.0
06/10:00pm 10.3 8.7 10.1 99 0.1 W 9 15 5 8 1023.7 - 1.0
06/09:30pm 10.4 8.4 10.1 98 0.2 WSW 11 19 6 10 1023.5 - 1.0
06/09:00pm 10.4 8.0 10.1 98 0.2 WSW 13 22 7 12 1023.4 1023.4 1.0
06/08:30pm 10.6 8.6 10.1 97 0.3 SW 11 24 6 13 1023.3 - 1.0
06/08:00pm 11.0 8.6 10.2 95 0.4 W 13 24 7 13 1023.0 - 0.4
06/07:30pm 11.2 9.2 10.3 94 0.5 WSW 11 19 6 10 1022.6 - 0.2
06/07:00pm 11.2 9.6 10.3 94 0.5 SW 9 19 5 10 1022.4 - 0.2
06/06:30pm 11.3 9.7 10.2 93 0.6 WSW 9 17 5 9 1022.0 - 0.2
06/06:00pm 11.5 8.8 10.2 92 0.7 WSW 15 28 8 15 1021.6 1021.6 0.2
06/05:30pm 12.0 10.0 10.1 88 1.0 WSW 11 19 6 10 1021.5 - 0.0
06/05:00pm 11.8 8.8 9.4 85 1.2 SW 15 22 8 12 1021.1 - 0.0
06/04:30pm 11.8 9.5 10.5 92 0.7 SW 13 26 7 14 1021.2 - 0.0
06/04:00pm 12.3 9.3 10.5 89 1.0 SSW 17 30 9 16 1020.9 - 0.0
06/03:30pm 14.3 9.4 7.1 62 3.6 W 22 39 12 21 1020.6 - 0.0
06/03:00pm 14.7 10.1 8.0 64 3.4 W 22 33 12 18 1020.6 1020.6 0.0
06/02:30pm 14.8 10.4 7.6 62 3.6 W 20 39 11 21 1020.6 - 0.0
06/02:00pm 15.3 11.1 8.1 62 3.7 W 20 33 11 18 1020.4 - 0.0
06/01:30pm 15.1 9.3 8.1 63 3.6 W 28 43 15 23 1020.6 - 0.0
06/01:00pm 14.3 9.5 8.9 70 2.8 W 24 43 13 23 1020.8 - 0.0
06/12:30pm 14.2 9.3 8.4 68 3.0 W 24 41 13 22 1021.1 - 0.0
06/12:00pm 13.6 9.7 9.6 77 2.1 W 20 32 11 17 1021.4 1021.4 0.0
06/11:30am 14.0 9.7 9.2 73 2.5 W 22 39 12 21 1021.5 - 0.0
06/11:00am 12.9 9.0 8.8 76 2.1 W 19 32 10 17 1021.6 - 0.0
06/10:30am 12.1 8.2 9.3 83 1.4 WNW 20 33 11 18 1021.5 - 0.0
06/10:00am 11.6 7.7 9.5 87 1.1 WNW 20 33 11 18 1021.4 - 0.0
06/09:30am 10.8 6.4 9.1 89 0.9 WNW 22 32 12 17 1021.3 - 0.0
06/09:00am 10.3 6.3 8.9 91 0.7 WNW 20 37 11 20 1021.2 1021.2 2.8
06/08:30am 9.8 5.9 8.6 92 0.6 WNW 19 32 10 17 1020.6 - 2.8
06/08:00am 9.2 5.6 8.3 94 0.4 WNW 17 26 9 14 1019.9 - 2.8
06/07:30am 8.9 4.8 8.5 97 0.2 WNW 20 32 11 17 1019.5 - 2.8
06/07:00am 8.8 5.2 8.4 97 0.2 W 17 30 9 16 1019.2 - 2.8
06/06:30am 8.3 4.9 7.5 95 0.4 WNW 15 22 8 12 1018.9 - 2.8
06/06:00am 8.1 5.1 7.5 96 0.3 WNW 13 19 7 10 1018.6 1018.6 2.8
06/05:30am 8.7 5.5 8.3 97 0.2 WNW 15 24 8 13 1018.2 - 2.8
06/05:00am 8.8 5.2 8.5 98 0.1 WNW 17 24 9 13 1017.8 - 2.8
06/04:30am 8.7 4.6 7.9 95 0.4 WNW 19 28 10 15 1017.6 - 2.8
06/04:00am 8.5 5.2 7.9 96 0.3 WNW 15 24 8 13 1017.5 - 2.8
06/03:30am 8.5 4.7 7.7 95 0.4 WNW 17 24 9 13 1017.3 - 2.8
06/03:00am 8.2 4.8 7.8 97 0.2 WNW 15 24 8 13 1017.2 1017.2 2.8
06/02:30am 8.5 4.8 7.9 96 0.3 W 17 26 9 14 1017.1 - 2.8
06/02:00am 8.5 4.7 7.6 94 0.4 WNW 17 32 9 17 1017.3 - 2.6
06/01:30am 8.3 4.8 7.4 94 0.4 W 15 24 8 13 1017.3 - 2.6
06/01:00am 8.2 4.3 7.0 92 0.6 WNW 17 32 9 17 1017.3 - 2.6
06/12:30am 7.9 4.8 7.1 95 0.4 W 13 20 7 11 1017.1 - 2.6
06/12:00am 7.8 4.2 6.9 94 0.4 W 15 26 8 14 1016.9 1016.9 2.6
 
Date/Time
CST
Temp
°C
App
Temp
°C
Dew
Point
Rel
Hum
%
Delta-T
°C
Wind Press
QNH
hPa
Press
MSL
hPa
Rain
since 9 am
mm
Dir
 
Spd
km/h
Gust
km/h
Spd
kts
Gust
kts
05/11:30pm 7.5 4.6 6.4 93 0.5 W 11 19 6 10 1016.9 - 2.6
05/11:00pm 7.9 4.7 6.7 92 0.6 W 13 24 7 13 1017.2 - 2.6
05/10:30pm 7.9 4.3 6.7 92 0.6 W 15 24 8 13 1016.9 - 2.6
05/10:00pm 8.4 4.7 6.2 86 1.0 W 15 32 8 17 1017.1 - 2.6
05/09:30pm 8.1 4.5 6.6 90 0.7 W 15 24 8 13 1016.8 - 2.6
05/09:00pm 8.5 4.2 6.8 89 0.8 W 19 37 10 20 1016.7 1016.7 2.6
05/08:30pm 8.4 4.3 6.4 87 0.9 W 17 26 9 14 1016.3 - 2.6
05/08:00pm 8.1 3.6 6.9 92 0.6 W 20 37 11 20 1016.3 - 2.4
05/07:30pm 8.3 4.2 6.1 86 1.0 W 17 32 9 17 1015.8 - 2.2
05/07:00pm 8.8 4.5 5.4 79 1.6 W 17 30 9 16 1015.4 - 2.2
05/06:30pm 8.8 3.7 5.9 82 1.4 W 22 35 12 19 1014.9 - 2.2
05/06:00pm 9.1 4.1 4.5 73 2.1 W 20 32 11 17 1014.1 1014.1 2.2
05/05:30pm 10.2 4.7 4.1 66 2.8 W 22 39 12 21 1013.8 - 2.2
05/05:00pm 10.4 3.7 3.7 63 3.0 W 28 48 15 26 1013.2 - 2.2
05/04:30pm 11.1 4.0 3.6 60 3.4 W 30 48 16 26 1012.8 - 2.2
05/04:00pm 11.0 4.5 4.5 64 3.0 W 28 50 15 27 1012.8 - 2.2
05/03:44pm 11.2 4.6 4.0 61 3.3 WSW 28 48 15 26 1012.8 - 2.2
05/03:30pm 11.3 5.7 5.4 67 2.8 WSW 24 41 13 22 1012.7 - 2.2
05/03:00pm 10.8 5.1 5.1 68 2.7 W 24 43 13 23 1012.4 1012.4 2.2
05/02:30pm 10.4 4.2 6.2 75 2.0 W 28 46 15 25 1012.4 - 2.0
05/02:04pm 10.1 3.8 5.7 74 2.1 W 28 46 15 25 1012.4 - 2.0
05/02:00pm 10.0 4.0 5.4 73 2.1 W 26 46 14 25 1012.3 - 2.0
05/01:31pm 12.0 5.4 4.2 59 3.6 WSW 28 46 15 25 1011.8 - 2.0
05/01:30pm 12.1 5.1 3.9 57 3.8 WSW 30 46 16 25 1011.7 - 2.0
05/01:00pm 12.3 5.3 4.3 58 3.7 W 30 54 16 29 1011.6 - 2.0
05/12:30pm 12.4 5.0 3.9 56 3.9 W 32 56 17 30 1011.8 - 2.0
05/12:00pm 12.0 4.9 5.6 65 3.0 W 32 50 17 27 1012.0 1012.0 2.0
05/11:30am 12.0 5.2 5.2 63 3.2 W 30 57 16 31 1012.3 - 2.0
05/11:01am 10.4 3.9 6.5 77 1.9 W 30 48 16 26 1012.2 - 2.0
05/11:00am 10.5 3.7 7.0 79 1.7 W 32 46 17 25 1012.1 - 2.0
05/10:32am 10.5 4.6 7.7 83 1.4 W 28 56 15 30 1011.7 - 2.0
05/10:30am 10.3 4.9 7.9 85 1.2 W 26 44 14 24 1011.6 - 2.0
05/10:00am 8.7 2.9 7.8 94 0.4 W 28 48 15 26 1011.6 - 2.0
05/09:30am 8.5 2.1 7.0 90 0.7 W 30 63 16 34 1011.0 - 1.8
05/09:25am 9.6 4.0 8.7 94 0.4 W 28 46 15 25 1010.9 - 1.2
05/09:00am 9.5 4.0 9.0 97 0.3 W 28 43 15 23 1010.5 1010.4 1.4
05/08:30am 9.3 2.9 8.4 94 0.4 W 32 50 17 27 1010.0 - 0.4
05/08:00am 10.6 4.1 6.7 77 1.9 WNW 30 52 16 28 1009.1 - 0.0
05/07:30am 10.7 3.2 6.5 75 2.0 WNW 35 56 19 30 1008.6 - 0.0
05/07:00am 10.4 4.3 6.4 76 1.9 WNW 28 46 15 25 1008.3 - 0.0
05/06:52am 10.3 4.1 6.3 76 1.9 WNW 28 46 15 25 1008.2 - 0.0
05/06:30am 10.1 4.3 6.3 77 1.8 WNW 26 39 14 21 1008.2 - 0.0
05/06:00am 10.1 3.9 6.1 76 1.9 WNW 28 39 15 21 1008.1 1008.0 0.0
05/05:30am 10.2 5.1 6.0 75 2.0 WNW 22 33 12 18 1008.3 - 0.0
05/05:00am 10.7 4.5 6.1 73 2.2 WNW 28 44 15 24 1008.2 - 0.0
05/04:30am 11.1 4.9 6.0 71 2.4 WNW 28 46 15 25 1008.1 - 0.0
05/04:09am 11.2 5.1 6.5 73 2.3 WNW 28 48 15 26 1007.8 - 0.0
05/04:00am 11.3 6.3 6.4 72 2.4 WNW 22 35 12 19 1007.8 - 0.0
05/03:30am 12.0 5.1 6.3 68 2.8 WNW 32 54 17 29 1007.8 - 0.0
05/03:12am 12.2 6.2 6.9 70 2.6 WNW 28 46 15 25 1007.8 - 0.0
05/03:00am 12.3 6.2 6.8 69 2.7 WNW 28 43 15 23 1007.8 1007.7 0.0
05/02:31am 12.8 6.7 6.8 67 2.9 WNW 28 48 15 26 1008.1 - 0.0
05/02:30am 12.8 7.1 6.6 66 3.0 WNW 26 46 14 25 1008.2 - 0.0
05/02:00am 13.5 7.0 6.4 62 3.5 W 30 54 16 29 1008.3 - 0.0
05/01:39am 13.7 7.3 6.8 63 3.4 W 30 50 16 27 1008.7 - 0.0
05/01:30am 13.8 7.0 6.7 62 3.5 W 32 48 17 26 1008.9 - 0.0
05/01:11am 14.1 7.2 6.5 60 3.7 W 32 50 17 27 1008.6 - 0.0
05/01:00am 14.1 8.7 6.5 60 3.7 WNW 24 37 13 20 1008.5 - 0.0
05/12:30am 14.5 8.8 6.8 60 3.8 W 26 43 14 23 1008.4 - 0.0
05/12:00am 14.9 9.8 7.5 61 3.7 W 24 43 13 23 1008.5 1008.4 0.0
 
Date/Time
CST
Temp
°C
App
Temp
°C
Dew
Point
Rel
Hum
%
Delta-T
°C
Wind Press
QNH
hPa
Press
MSL
hPa
Rain
since 9 am
mm
Dir
 
Spd
km/h
Gust
km/h
Spd
kts
Gust
kts
04/11:30pm 15.2 9.2 7.2 59 4.0 W 28 48 15 26 1008.5 - 0.0
04/11:24pm 15.4 9.5 7.7 60 3.9 W 28 48 15 26 1008.5 - 0.0
04/11:00pm 15.8 11.6 9.7 67 3.2 W 22 37 12 20 1008.6 - 0.0
04/10:30pm 16.4 12.3 8.6 60 4.1 W 20 33 11 18 1008.8 - 0.0
04/10:00pm 17.0 11.8 7.4 53 4.9 W 24 46 13 25 1008.7 - 0.0
04/09:30pm 18.2 13.8 7.6 50 5.5 W 20 37 11 20 1008.6 - 0.0
04/09:00pm 20.2 14.9 3.0 32 8.3 WNW 20 39 11 21 1007.7 1007.6 0.0
04/08:30pm 21.3 14.6 1.6 27 9.3 NNW 26 41 14 22 1006.7 - 0.0
04/08:00pm 20.7 16.2 2.0 29 8.8 NNW 15 20 8 11 1006.6 - 0.0
04/07:30pm 21.4 15.9 1.6 27 9.3 NNW 20 37 11 20 1006.4 - 0.0
04/07:00pm 21.6 15.6 1.3 26 9.5 NNW 22 37 12 20 1007.0 - 0.0
04/06:30pm 21.2 16.8 2.5 29 8.9 NNW 15 24 8 13 1007.0 - 0.0
04/06:00pm 21.2 17.1 2.5 29 9.0 NNW 13 22 7 12 1006.8 1006.7 0.0
04/05:30pm 21.8 17.4 2.5 28 9.3 N 15 22 8 12 1006.9 - 0.0
04/05:00pm 22.3 18.0 3.4 29 9.3 NNW 15 30 8 16 1006.7 - 0.0
04/04:30pm 23.5 19.0 2.4 25 10.2 NW 15 28 8 15 1006.9 - 0.0
04/04:00pm 23.7 18.0 3.1 26 10.1 NNW 22 32 12 17 1006.9 - 0.0
04/03:30pm 25.1 19.3 4.3 26 10.6 NNW 24 41 13 22 1006.7 - 0.0
04/03:00pm 24.8 19.4 4.5 27 10.4 N 22 37 12 20 1006.9 1006.8 0.0
04/02:30pm 24.2 18.6 3.5 26 10.3 N 22 35 12 19 1007.3 - 0.0
04/02:00pm 24.9 19.1 4.6 27 10.4 N 24 37 13 20 1007.9 - 0.0
04/01:30pm 23.8 17.6 4.2 28 9.9 NNW 26 43 14 23 1008.5 - 0.0
04/01:00pm 24.3 18.2 4.6 28 10.0 NNW 26 43 14 23 1009.4 - 0.0
04/12:36pm 23.3 16.0 2.7 26 10.0 NNW 30 48 16 26 1010.3 - 0.0
04/12:30pm 23.8 17.6 4.2 28 9.9 NNW 26 44 14 24 1010.3 - 0.0

Other Formats:

Comma delimited format used in spreadsheet applications
http://www.bom.gov.au/fwo/IDS60801/IDS60801.95667.axf

JavaScript Object Notation format (JSON) in row-major order
http://www.bom.gov.au/fwo/IDS60801/IDS60801.95667.json